createdAt,value
2023-04-09T20:56:36.541Z,41.23
2023-04-09T20:59:04.958Z,43.04
2023-04-09T21:01:33.394Z,41.49
2023-04-09T21:04:03.953Z,40.46
2023-04-09T21:06:40.431Z,40.54
2023-04-09T21:09:08.809Z,41.00
2023-04-09T21:11:37.050Z,41.28
2023-04-09T21:14:07.970Z,40.53
2023-04-09T21:16:36.623Z,40.86
2023-04-09T21:19:06.980Z,40.75
2023-04-09T21:21:36.535Z,40.26
2023-04-09T21:24:05.002Z,40.28
2023-04-09T21:26:49.407Z,39.91
2023-04-09T21:29:21.129Z,40.16
2023-04-09T21:31:50.707Z,40.27
2023-04-09T21:34:19.942Z,40.38
2023-04-09T21:36:48.509Z,41.20
2023-04-09T21:39:17.939Z,41.11
2023-04-09T21:41:46.728Z,40.92
2023-04-09T21:44:15.030Z,40.93
2023-04-09T21:46:43.365Z,40.68
2023-04-09T21:49:11.766Z,40.33
2023-04-09T21:51:40.212Z,39.91
2023-04-09T21:54:11.884Z,40.16
2023-04-09T21:56:40.227Z,41.64
2023-04-09T21:59:08.481Z,43.58
2023-04-09T22:01:36.916Z,42.45
2023-04-09T22:04:05.402Z,43.49
2023-04-09T22:06:33.784Z,42.32
2023-04-09T22:09:02.419Z,42.35
2023-04-09T22:11:31.087Z,42.12
2023-04-09T22:13:59.398Z,42.81
2023-04-09T22:16:27.858Z,42.98
2023-04-09T22:18:56.894Z,41.66
2023-04-09T22:21:26.723Z,44.05
2023-04-09T22:23:55.135Z,43.01
2023-04-09T22:26:23.998Z,43.12
2023-04-09T22:28:52.639Z,43.30
2023-04-09T22:31:27.300Z,42.25
2023-04-09T22:33:56.077Z,42.53
2023-04-09T22:36:24.927Z,41.94
2023-04-09T22:38:53.319Z,41.55
2023-04-09T22:41:22.785Z,41.47
2023-04-09T22:43:52.318Z,42.13
2023-04-09T22:46:21.446Z,41.76
2023-04-09T22:48:50.302Z,42.10
2023-04-09T22:51:18.618Z,42.00
2023-04-09T22:53:47.259Z,41.95
2023-04-09T22:56:15.560Z,42.07
2023-04-09T22:58:43.763Z,42.36
2023-04-09T23:01:12.068Z,42.32
2023-04-09T23:03:40.357Z,42.08
2023-04-09T23:06:08.601Z,41.59
2023-04-09T23:08:38.752Z,42.16
2023-04-09T23:11:08.640Z,41.94
2023-04-09T23:13:37.843Z,43.76
2023-04-09T23:16:08.021Z,43.13
2023-04-09T23:18:36.736Z,43.59
2023-04-09T23:21:07.547Z,43.37
2023-04-09T23:23:37.005Z,42.88
2023-04-09T23:26:06.465Z,43.10
2023-04-09T23:28:34.804Z,43.64
2023-04-09T23:31:03.043Z,45.52
2023-04-09T23:33:32.451Z,44.21
2023-04-09T23:36:00.936Z,44.12
2023-04-09T23:38:29.261Z,43.51
2023-04-09T23:40:57.477Z,43.38
2023-04-09T23:43:25.831Z,42.88
2023-04-09T23:45:54.144Z,43.83
2023-04-09T23:48:22.485Z,44.23
2023-04-09T23:50:50.689Z,44.24
2023-04-09T23:53:18.985Z,44.26
2023-04-09T23:55:47.770Z,44.05
2023-04-09T23:58:16.144Z,42.90
